sensor_id;sensor_type;location;lat;lon;timestamp;temperature;humidity
64654;DHT22;51065;48.884;12.598;2023-06-24T00:02:14;14.90;99.90
64654;DHT22;51065;48.884;12.598;2023-06-24T00:04:39;14.90;99.90
64654;DHT22;51065;48.884;12.598;2023-06-24T00:07:05;14.90;99.90
64654;DHT22;51065;48.884;12.598;2023-06-24T00:09:32;14.90;99.90
64654;DHT22;51065;48.884;12.598;2023-06-24T00:11:58;14.90;99.90
64654;DHT22;51065;48.884;12.598;2023-06-24T00:14:24;14.90;99.90
64654;DHT22;51065;48.884;12.598;2023-06-24T00:16:52;14.90;99.90
64654;DHT22;51065;48.884;12.598;2023-06-24T00:19:23;14.90;99.90
64654;DHT22;51065;48.884;12.598;2023-06-24T00:21:49;14.90;99.90
64654;DHT22;51065;48.884;12.598;2023-06-24T00:24:21;14.90;99.90
64654;DHT22;51065;48.884;12.598;2023-06-24T00:26:51;14.90;99.90
64654;DHT22;51065;48.884;12.598;2023-06-24T00:29:17;14.90;99.90
64654;DHT22;51065;48.884;12.598;2023-06-24T00:31:43;14.90;99.90
64654;DHT22;51065;48.884;12.598;2023-06-24T00:34:08;15.00;99.90
64654;DHT22;51065;48.884;12.598;2023-06-24T00:36:34;15.00;99.90
64654;DHT22;51065;48.884;12.598;2023-06-24T00:39:01;15.00;99.90
64654;DHT22;51065;48.884;12.598;2023-06-24T00:41:33;15.00;99.90
64654;DHT22;51065;48.884;12.598;2023-06-24T00:43:59;15.00;99.90
64654;DHT22;51065;48.884;12.598;2023-06-24T00:46:26;15.00;99.90
64654;DHT22;51065;48.884;12.598;2023-06-24T00:48:55;15.00;99.90
64654;DHT22;51065;48.884;12.598;2023-06-24T00:51:24;15.00;99.90
64654;DHT22;51065;48.884;12.598;2023-06-24T00:53:56;15.00;99.90
64654;DHT22;51065;48.884;12.598;2023-06-24T00:56:23;15.00;99.90
64654;DHT22;51065;48.884;12.598;2023-06-24T00:58:49;15.00;99.90
64654;DHT22;51065;48.884;12.598;2023-06-24T01:01:15;15.00;99.90
64654;DHT22;51065;48.884;12.598;2023-06-24T01:03:41;15.00;99.90
64654;DHT22;51065;48.884;12.598;2023-06-24T01:06:08;15.00;99.90
64654;DHT22;51065;48.884;12.598;2023-06-24T01:08:35;15.00;99.90
64654;DHT22;51065;48.884;12.598;2023-06-24T01:11:01;15.00;99.90
64654;DHT22;51065;48.884;12.598;2023-06-24T01:13:27;15.00;99.90
64654;DHT22;51065;48.884;12.598;2023-06-24T01:15:53;14.90;99.90
64654;DHT22;51065;48.884;12.598;2023-06-24T01:18:35;14.90;99.90
64654;DHT22;51065;48.884;12.598;2023-06-24T01:21:09;15.00;99.90
64654;DHT22;51065;48.884;12.598;2023-06-24T01:32:31;15.00;99.90
64654;DHT22;51065;48.884;12.598;2023-06-24T01:35:05;15.00;99.90
64654;DHT22;51065;48.884;12.598;2023-06-24T01:37:40;15.00;99.90
64654;DHT22;51065;48.884;12.598;2023-06-24T01:42:44;15.00;99.90
64654;DHT22;51065;48.884;12.598;2023-06-24T01:45:14;15.00;99.90
64654;DHT22;51065;48.884;12.598;2023-06-24T01:47:47;15.00;99.90
64654;DHT22;51065;48.884;12.598;2023-06-24T01:50:15;15.00;99.90
64654;DHT22;51065;48.884;12.598;2023-06-24T01:52:43;15.00;99.90
64654;DHT22;51065;48.884;12.598;2023-06-24T01:55:11;15.00;99.90
64654;DHT22;51065;48.884;12.598;2023-06-24T01:57:40;15.00;99.90
64654;DHT22;51065;48.884;12.598;2023-06-24T02:00:08;15.00;99.90
64654;DHT22;51065;48.884;12.598;2023-06-24T02:02:36;15.00;99.90
64654;DHT22;51065;48.884;12.598;2023-06-24T02:05:03;15.00;99.90
64654;DHT22;51065;48.884;12.598;2023-06-24T02:07:31;15.00;99.90
64654;DHT22;51065;48.884;12.598;2023-06-24T02:09:58;15.00;99.90
64654;DHT22;51065;48.884;12.598;2023-06-24T02:12:26;15.00;99.90
64654;DHT22;51065;48.884;12.598;2023-06-24T02:14:54;15.10;99.90
64654;DHT22;51065;48.884;12.598;2023-06-24T02:17:20;15.00;99.90
64654;DHT22;51065;48.884;12.598;2023-06-24T02:19:47;15.10;99.90
64654;DHT22;51065;48.884;12.598;2023-06-24T02:22:13;15.10;99.90
64654;DHT22;51065;48.884;12.598;2023-06-24T02:24:40;15.00;99.90
64654;DHT22;51065;48.884;12.598;2023-06-24T02:27:07;15.00;99.90
64654;DHT22;51065;48.884;12.598;2023-06-24T02:29:36;15.00;99.90
64654;DHT22;51065;48.884;12.598;2023-06-24T02:32:02;15.10;99.90
64654;DHT22;51065;48.884;12.598;2023-06-24T02:34:28;15.00;99.90
64654;DHT22;51065;48.884;12.598;2023-06-24T02:36:54;15.10;99.90
64654;DHT22;51065;48.884;12.598;2023-06-24T02:39:19;15.10;99.90
64654;DHT22;51065;48.884;12.598;2023-06-24T02:41:45;15.00;99.90
64654;DHT22;51065;48.884;12.598;2023-06-24T02:44:13;15.00;99.90
64654;DHT22;51065;48.884;12.598;2023-06-24T02:46:39;15.10;99.90
64654;DHT22;51065;48.884;12.598;2023-06-24T02:49:06;15.10;99.90
64654;DHT22;51065;48.884;12.598;2023-06-24T02:51:33;15.10;99.90
64654;DHT22;51065;48.884;12.598;2023-06-24T02:53:59;15.10;99.90
64654;DHT22;51065;48.884;12.598;2023-06-24T02:56:26;15.10;99.90
64654;DHT22;51065;48.884;12.598;2023-06-24T02:58:53;15.10;99.90
64654;DHT22;51065;48.884;12.598;2023-06-24T03:01:20;15.10;99.90
64654;DHT22;51065;48.884;12.598;2023-06-24T03:03:53;15.10;99.90
64654;DHT22;51065;48.884;12.598;2023-06-24T03:06:19;15.10;99.90
64654;DHT22;51065;48.884;12.598;2023-06-24T03:08:45;15.10;99.90
64654;DHT22;51065;48.884;12.598;2023-06-24T03:11:14;15.10;99.90
64654;DHT22;51065;48.884;12.598;2023-06-24T03:13:40;15.10;99.90
64654;DHT22;51065;48.884;12.598;2023-06-24T03:16:06;15.10;99.90
64654;DHT22;51065;48.884;12.598;2023-06-24T03:18:43;15.20;99.90
64654;DHT22;51065;48.884;12.598;2023-06-24T03:21:09;15.10;99.90
64654;DHT22;51065;48.884;12.598;2023-06-24T03:23:35;15.20;99.90
64654;DHT22;51065;48.884;12.598;2023-06-24T03:26:01;15.20;99.90
64654;DHT22;51065;48.884;12.598;2023-06-24T03:28:31;15.20;99.90
64654;DHT22;51065;48.884;12.598;2023-06-24T03:30:58;15.20;99.90
64654;DHT22;51065;48.884;12.598;2023-06-24T03:33:23;15.20;99.90
64654;DHT22;51065;48.884;12.598;2023-06-24T03:35:50;15.20;99.90
64654;DHT22;51065;48.884;12.598;2023-06-24T03:38:16;15.20;99.90
64654;DHT22;51065;48.884;12.598;2023-06-24T03:40:42;15.20;99.90
64654;DHT22;51065;48.884;12.598;2023-06-24T03:43:09;15.20;99.90
64654;DHT22;51065;48.884;12.598;2023-06-24T03:45:34;15.20;99.90
64654;DHT22;51065;48.884;12.598;2023-06-24T03:48:00;15.20;99.90
64654;DHT22;51065;48.884;12.598;2023-06-24T03:50:25;15.20;99.90
64654;DHT22;51065;48.884;12.598;2023-06-24T03:52:51;15.30;99.90
64654;DHT22;51065;48.884;12.598;2023-06-24T03:55:16;15.30;99.90
64654;DHT22;51065;48.884;12.598;2023-06-24T03:57:42;15.30;99.90
64654;DHT22;51065;48.884;12.598;2023-06-24T04:00:08;15.30;99.90
64654;DHT22;51065;48.884;12.598;2023-06-24T04:02:42;15.30;99.90
64654;DHT22;51065;48.884;12.598;2023-06-24T04:05:09;15.30;99.90
64654;DHT22;51065;48.884;12.598;2023-06-24T04:07:34;15.30;99.90
64654;DHT22;51065;48.884;12.598;2023-06-24T04:10:02;15.30;99.90
64654;DHT22;51065;48.884;12.598;2023-06-24T04:12:29;15.30;99.90
64654;DHT22;51065;48.884;12.598;2023-06-24T04:14:54;15.30;99.90
64654;DHT22;51065;48.884;12.598;2023-06-24T04:17:20;15.30;99.90
64654;DHT22;51065;48.884;12.598;2023-06-24T04:19:45;15.40;99.90
64654;DHT22;51065;48.884;12.598;2023-06-24T04:22:11;15.40;99.90
64654;DHT22;51065;48.884;12.598;2023-06-24T04:24:37;15.40;99.90
64654;DHT22;51065;48.884;12.598;2023-06-24T04:27:02;15.40;99.90
64654;DHT22;51065;48.884;12.598;2023-06-24T04:29:28;15.40;99.90
64654;DHT22;51065;48.884;12.598;2023-06-24T04:31:53;15.50;99.90
64654;DHT22;51065;48.884;12.598;2023-06-24T04:34:19;15.50;99.90
64654;DHT22;51065;48.884;12.598;2023-06-24T04:36:44;15.50;99.90
64654;DHT22;51065;48.884;12.598;2023-06-24T04:39:10;15.60;99.90
64654;DHT22;51065;48.884;12.598;2023-06-24T04:41:36;15.60;99.90
64654;DHT22;51065;48.884;12.598;2023-06-24T04:44:01;15.70;99.90
64654;DHT22;51065;48.884;12.598;2023-06-24T04:46:27;15.70;99.90
64654;DHT22;51065;48.884;12.598;2023-06-24T04:48:52;15.70;99.90
64654;DHT22;51065;48.884;12.598;2023-06-24T04:51:18;15.80;99.90
64654;DHT22;51065;48.884;12.598;2023-06-24T04:53:43;15.90;99.90
64654;DHT22;51065;48.884;12.598;2023-06-24T04:56:09;15.90;99.90
64654;DHT22;51065;48.884;12.598;2023-06-24T04:58:34;16.00;99.90
64654;DHT22;51065;48.884;12.598;2023-06-24T05:01:00;16.00;99.90
64654;DHT22;51065;48.884;12.598;2023-06-24T05:03:26;16.00;99.90
64654;DHT22;51065;48.884;12.598;2023-06-24T05:05:51;16.00;99.90
64654;DHT22;51065;48.884;12.598;2023-06-24T05:08:17;16.10;99.90
64654;DHT22;51065;48.884;12.598;2023-06-24T05:10:42;16.10;99.90
64654;DHT22;51065;48.884;12.598;2023-06-24T05:13:08;16.20;99.90
64654;DHT22;51065;48.884;12.598;2023-06-24T05:15:33;16.20;99.90
64654;DHT22;51065;48.884;12.598;2023-06-24T05:17:59;16.30;99.90
64654;DHT22;51065;48.884;12.598;2023-06-24T05:20:24;16.40;99.90
64654;DHT22;51065;48.884;12.598;2023-06-24T05:22:50;16.40;99.90
64654;DHT22;51065;48.884;12.598;2023-06-24T05:25:16;16.50;99.90
64654;DHT22;51065;48.884;12.598;2023-06-24T05:27:42;16.60;99.90
64654;DHT22;51065;48.884;12.598;2023-06-24T05:30:10;16.80;99.90
64654;DHT22;51065;48.884;12.598;2023-06-24T05:32:35;16.90;99.90
64654;DHT22;51065;48.884;12.598;2023-06-24T05:35:01;17.10;99.90
64654;DHT22;51065;48.884;12.598;2023-06-24T05:37:26;17.20;99.90
64654;DHT22;51065;48.884;12.598;2023-06-24T05:39:52;17.40;99.90
64654;DHT22;51065;48.884;12.598;2023-06-24T05:42:18;17.60;99.90
64654;DHT22;51065;48.884;12.598;2023-06-24T05:44:43;17.70;99.90
64654;DHT22;51065;48.884;12.598;2023-06-24T05:47:09;17.60;99.90
64654;DHT22;51065;48.884;12.598;2023-06-24T05:49:34;17.70;99.90
64654;DHT22;51065;48.884;12.598;2023-06-24T05:52:00;17.80;99.90
64654;DHT22;51065;48.884;12.598;2023-06-24T05:54:26;17.90;99.90
64654;DHT22;51065;48.884;12.598;2023-06-24T05:56:51;18.10;99.90
64654;DHT22;51065;48.884;12.598;2023-06-24T05:59:17;18.40;99.90
64654;DHT22;51065;48.884;12.598;2023-06-24T06:01:42;18.50;99.90
64654;DHT22;51065;48.884;12.598;2023-06-24T06:04:08;18.60;99.90
64654;DHT22;51065;48.884;12.598;2023-06-24T06:06:33;18.60;99.90
64654;DHT22;51065;48.884;12.598;2023-06-24T06:08:59;18.50;99.90
64654;DHT22;51065;48.884;12.598;2023-06-24T06:11:25;18.80;99.90
64654;DHT22;51065;48.884;12.598;2023-06-24T06:13:50;19.20;99.90
64654;DHT22;51065;48.884;12.598;2023-06-24T06:16:17;19.60;99.90
64654;DHT22;51065;48.884;12.598;2023-06-24T06:18:43;20.00;99.90
64654;DHT22;51065;48.884;12.598;2023-06-24T06:21:08;20.20;99.90
64654;DHT22;51065;48.884;12.598;2023-06-24T06:23:34;20.40;99.90
64654;DHT22;51065;48.884;12.598;2023-06-24T06:25:59;20.10;99.90
64654;DHT22;51065;48.884;12.598;2023-06-24T06:28:25;19.80;99.90
64654;DHT22;51065;48.884;12.598;2023-06-24T06:30:50;19.60;99.90
64654;DHT22;51065;48.884;12.598;2023-06-24T06:33:16;19.30;99.90
64654;DHT22;51065;48.884;12.598;2023-06-24T06:35:41;19.30;99.90
64654;DHT22;51065;48.884;12.598;2023-06-24T06:38:07;19.10;99.90
64654;DHT22;51065;48.884;12.598;2023-06-24T06:40:33;19.10;99.90
64654;DHT22;51065;48.884;12.598;2023-06-24T06:42:58;19.20;99.90
64654;DHT22;51065;48.884;12.598;2023-06-24T06:45:24;19.10;99.90
64654;DHT22;51065;48.884;12.598;2023-06-24T06:47:50;19.10;99.90
64654;DHT22;51065;48.884;12.598;2023-06-24T06:50:16;19.10;99.90
64654;DHT22;51065;48.884;12.598;2023-06-24T06:52:41;19.20;99.90
64654;DHT22;51065;48.884;12.598;2023-06-24T06:55:07;19.20;99.90
64654;DHT22;51065;48.884;12.598;2023-06-24T06:57:33;19.40;99.90
64654;DHT22;51065;48.884;12.598;2023-06-24T06:59:58;19.50;99.90
64654;DHT22;51065;48.884;12.598;2023-06-24T07:02:24;19.50;99.90
64654;DHT22;51065;48.884;12.598;2023-06-24T07:04:49;19.70;99.90
64654;DHT22;51065;48.884;12.598;2023-06-24T07:07:16;19.90;99.90
64654;DHT22;51065;48.884;12.598;2023-06-24T07:09:42;20.00;99.90
64654;DHT22;51065;48.884;12.598;2023-06-24T07:12:08;20.20;99.90
64654;DHT22;51065;48.884;12.598;2023-06-24T07:14:34;20.10;99.90
64654;DHT22;51065;48.884;12.598;2023-06-24T07:16:59;20.20;99.90
64654;DHT22;51065;48.884;12.598;2023-06-24T07:19:25;20.10;99.90
64654;DHT22;51065;48.884;12.598;2023-06-24T07:21:51;20.60;99.90
64654;DHT22;51065;48.884;12.598;2023-06-24T07:24:17;20.80;99.90
64654;DHT22;51065;48.884;12.598;2023-06-24T07:26:43;21.40;99.90
64654;DHT22;51065;48.884;12.598;2023-06-24T07:29:08;21.80;99.90
64654;DHT22;51065;48.884;12.598;2023-06-24T07:31:35;21.90;99.90
64654;DHT22;51065;48.884;12.598;2023-06-24T07:34:01;21.90;99.90
64654;DHT22;51065;48.884;12.598;2023-06-24T07:36:26;22.30;99.90
64654;DHT22;51065;48.884;12.598;2023-06-24T07:38:52;22.20;99.90
64654;DHT22;51065;48.884;12.598;2023-06-24T07:41:18;22.10;99.90
64654;DHT22;51065;48.884;12.598;2023-06-24T07:43:43;22.20;99.90
64654;DHT22;51065;48.884;12.598;2023-06-24T07:46:09;22.60;99.90
64654;DHT22;51065;48.884;12.598;2023-06-24T07:48:34;23.00;99.90
64654;DHT22;51065;48.884;12.598;2023-06-24T07:51:00;23.80;98.30
64654;DHT22;51065;48.884;12.598;2023-06-24T07:53:26;23.70;99.90
64654;DHT22;51065;48.884;12.598;2023-06-24T07:55:51;23.80;99.40
64654;DHT22;51065;48.884;12.598;2023-06-24T07:58:17;23.40;99.90
64654;DHT22;51065;48.884;12.598;2023-06-24T08:00:44;23.00;99.90
64654;DHT22;51065;48.884;12.598;2023-06-24T08:03:11;23.80;99.90
64654;DHT22;51065;48.884;12.598;2023-06-24T08:05:36;23.80;99.90
64654;DHT22;51065;48.884;12.598;2023-06-24T08:08:04;24.00;98.60
64654;DHT22;51065;48.884;12.598;2023-06-24T08:10:30;24.30;97.30
64654;DHT22;51065;48.884;12.598;2023-06-24T08:12:55;24.00;94.50
64654;DHT22;51065;48.884;12.598;2023-06-24T08:15:21;23.80;94.70
64654;DHT22;51065;48.884;12.598;2023-06-24T08:17:51;24.60;96.80
64654;DHT22;51065;48.884;12.598;2023-06-24T08:20:17;25.10;90.20
64654;DHT22;51065;48.884;12.598;2023-06-24T08:22:43;24.50;89.00
64654;DHT22;51065;48.884;12.598;2023-06-24T08:25:08;24.50;96.90
64654;DHT22;51065;48.884;12.598;2023-06-24T08:27:34;24.80;94.60
64654;DHT22;51065;48.884;12.598;2023-06-24T08:29:59;25.00;93.30
64654;DHT22;51065;48.884;12.598;2023-06-24T08:32:25;25.30;90.90
64654;DHT22;51065;48.884;12.598;2023-06-24T08:34:50;25.00;90.30
64654;DHT22;51065;48.884;12.598;2023-06-24T08:37:16;25.10;88.50
64654;DHT22;51065;48.884;12.598;2023-06-24T08:39:41;25.00;90.10
64654;DHT22;51065;48.884;12.598;2023-06-24T08:42:07;25.20;93.50
64654;DHT22;51065;48.884;12.598;2023-06-24T08:44:33;25.10;86.50
64654;DHT22;51065;48.884;12.598;2023-06-24T08:46:58;24.20;90.50
64654;DHT22;51065;48.884;12.598;2023-06-24T08:51:59;23.60;98.20
64654;DHT22;51065;48.884;12.598;2023-06-24T08:54:25;23.80;99.80
64654;DHT22;51065;48.884;12.598;2023-06-24T08:56:52;24.40;95.50
64654;DHT22;51065;48.884;12.598;2023-06-24T08:59:18;24.10;98.90
64654;DHT22;51065;48.884;12.598;2023-06-24T09:01:46;24.40;95.60
64654;DHT22;51065;48.884;12.598;2023-06-24T09:04:12;24.90;98.00
64654;DHT22;51065;48.884;12.598;2023-06-24T09:06:37;25.40;89.00
64654;DHT22;51065;48.884;12.598;2023-06-24T09:09:03;26.10;76.90
64654;DHT22;51065;48.884;12.598;2023-06-24T09:11:30;26.20;75.50
64654;DHT22;51065;48.884;12.598;2023-06-24T09:13:58;27.30;80.80
64654;DHT22;51065;48.884;12.598;2023-06-24T09:16:24;28.40;60.00
64654;DHT22;51065;48.884;12.598;2023-06-24T09:18:51;28.10;55.60
64654;DHT22;51065;48.884;12.598;2023-06-24T09:21:29;27.50;61.30
64654;DHT22;51065;48.884;12.598;2023-06-24T09:23:58;27.60;61.80
64654;DHT22;51065;48.884;12.598;2023-06-24T09:26:24;26.90;67.90
64654;DHT22;51065;48.884;12.598;2023-06-24T09:28:50;27.40;63.00
64654;DHT22;51065;48.884;12.598;2023-06-24T09:31:17;26.40;64.30
64654;DHT22;51065;48.884;12.598;2023-06-24T09:33:44;27.30;63.10
64654;DHT22;51065;48.884;12.598;2023-06-24T09:36:16;27.70;60.10
64654;DHT22;51065;48.884;12.598;2023-06-24T09:38:43;27.70;61.30
64654;DHT22;51065;48.884;12.598;2023-06-24T09:41:10;29.20;55.80
64654;DHT22;51065;48.884;12.598;2023-06-24T09:43:37;28.50;52.40
64654;DHT22;51065;48.884;12.598;2023-06-24T09:46:05;27.00;57.40
64654;DHT22;51065;48.884;12.598;2023-06-24T09:48:32;26.60;60.40
64654;DHT22;51065;48.884;12.598;2023-06-24T09:51:00;26.90;61.80
64654;DHT22;51065;48.884;12.598;2023-06-24T09:53:30;27.20;55.30
64654;DHT22;51065;48.884;12.598;2023-06-24T09:55:55;26.30;58.70
64654;DHT22;51065;48.884;12.598;2023-06-24T09:58:23;26.30;67.50
64654;DHT22;51065;48.884;12.598;2023-06-24T10:00:50;27.00;60.20
64654;DHT22;51065;48.884;12.598;2023-06-24T10:03:16;28.00;54.60
64654;DHT22;51065;48.884;12.598;2023-06-24T10:05:42;28.70;52.60
64654;DHT22;51065;48.884;12.598;2023-06-24T10:08:09;29.20;50.60
64654;DHT22;51065;48.884;12.598;2023-06-24T10:10:35;29.30;47.70
64654;DHT22;51065;48.884;12.598;2023-06-24T10:13:01;28.30;49.60
64654;DHT22;51065;48.884;12.598;2023-06-24T10:15:27;28.20;51.30
64654;DHT22;51065;48.884;12.598;2023-06-24T10:17:52;26.90;50.20
64654;DHT22;51065;48.884;12.598;2023-06-24T10:20:27;25.90;54.60
64654;DHT22;51065;48.884;12.598;2023-06-24T10:22:53;26.10;56.40
64654;DHT22;51065;48.884;12.598;2023-06-24T10:25:18;27.10;52.50
64654;DHT22;51065;48.884;12.598;2023-06-24T10:27:44;28.40;47.80
64654;DHT22;51065;48.884;12.598;2023-06-24T10:30:20;28.90;46.40
64654;DHT22;51065;48.884;12.598;2023-06-24T10:32:52;29.40;45.70
64654;DHT22;51065;48.884;12.598;2023-06-24T10:35:28;30.30;43.50
64654;DHT22;51065;48.884;12.598;2023-06-24T10:37:58;30.50;43.90
64654;DHT22;51065;48.884;12.598;2023-06-24T10:40:42;30.10;43.20
64654;DHT22;51065;48.884;12.598;2023-06-24T10:43:25;29.20;43.30
64654;DHT22;51065;48.884;12.598;2023-06-24T10:45:53;29.70;45.30
64654;DHT22;51065;48.884;12.598;2023-06-24T10:48:19;29.70;46.20
64654;DHT22;51065;48.884;12.598;2023-06-24T10:50:46;30.10;42.50
64654;DHT22;51065;48.884;12.598;2023-06-24T10:53:12;30.20;42.60
64654;DHT22;51065;48.884;12.598;2023-06-24T10:55:39;29.90;44.10
64654;DHT22;51065;48.884;12.598;2023-06-24T10:58:11;29.80;43.40
64654;DHT22;51065;48.884;12.598;2023-06-24T11:00:38;29.60;42.60
64654;DHT22;51065;48.884;12.598;2023-06-24T11:03:10;29.90;43.20
64654;DHT22;51065;48.884;12.598;2023-06-24T11:05:44;30.10;44.40
64654;DHT22;51065;48.884;12.598;2023-06-24T11:08:10;29.70;42.30
64654;DHT22;51065;48.884;12.598;2023-06-24T11:10:46;29.80;43.80
64654;DHT22;51065;48.884;12.598;2023-06-24T11:13:13;30.10;42.30
64654;DHT22;51065;48.884;12.598;2023-06-24T11:15:40;28.80;41.70
64654;DHT22;51065;48.884;12.598;2023-06-24T11:18:09;28.50;44.40
64654;DHT22;51065;48.884;12.598;2023-06-24T11:20:38;28.10;45.20
64654;DHT22;51065;48.884;12.598;2023-06-24T11:23:07;28.40;45.30
64654;DHT22;51065;48.884;12.598;2023-06-24T11:25:42;28.40;46.00
64654;DHT22;51065;48.884;12.598;2023-06-24T11:28:17;28.60;46.10
64654;DHT22;51065;48.884;12.598;2023-06-24T11:30:43;28.30;45.30
64654;DHT22;51065;48.884;12.598;2023-06-24T11:33:09;27.90;46.40
64654;DHT22;51065;48.884;12.598;2023-06-24T11:35:35;28.40;46.70
64654;DHT22;51065;48.884;12.598;2023-06-24T11:38:02;28.90;48.30
64654;DHT22;51065;48.884;12.598;2023-06-24T11:40:27;29.20;45.30
64654;DHT22;51065;48.884;12.598;2023-06-24T11:42:55;28.70;45.20
64654;DHT22;51065;48.884;12.598;2023-06-24T11:45:21;27.50;46.60
64654;DHT22;51065;48.884;12.598;2023-06-24T11:47:47;27.50;44.20
64654;DHT22;51065;48.884;12.598;2023-06-24T11:50:14;28.30;46.10
64654;DHT22;51065;48.884;12.598;2023-06-24T11:52:43;29.20;43.10
64654;DHT22;51065;48.884;12.598;2023-06-24T11:55:20;30.10;41.90
64654;DHT22;51065;48.884;12.598;2023-06-24T11:58:04;29.90;40.30
64654;DHT22;51065;48.884;12.598;2023-06-24T12:00:40;30.20;41.50
64654;DHT22;51065;48.884;12.598;2023-06-24T12:03:09;30.90;42.20
64654;DHT22;51065;48.884;12.598;2023-06-24T12:05:36;30.50;40.70
64654;DHT22;51065;48.884;12.598;2023-06-24T12:08:07;30.40;40.80
64654;DHT22;51065;48.884;12.598;2023-06-24T12:10:34;30.90;40.20
64654;DHT22;51065;48.884;12.598;2023-06-24T12:13:02;30.80;40.40
64654;DHT22;51065;48.884;12.598;2023-06-24T12:15:28;31.20;39.20
64654;DHT22;51065;48.884;12.598;2023-06-24T12:17:54;30.30;41.00
64654;DHT22;51065;48.884;12.598;2023-06-24T12:20:20;30.20;41.10
64654;DHT22;51065;48.884;12.598;2023-06-24T12:22:48;30.00;43.10
64654;DHT22;51065;48.884;12.598;2023-06-24T12:25:14;29.90;42.00
64654;DHT22;51065;48.884;12.598;2023-06-24T12:27:42;29.60;43.30
64654;DHT22;51065;48.884;12.598;2023-06-24T12:30:08;29.40;43.90
64654;DHT22;51065;48.884;12.598;2023-06-24T12:32:34;29.20;43.10
64654;DHT22;51065;48.884;12.598;2023-06-24T12:34:59;29.30;43.50
64654;DHT22;51065;48.884;12.598;2023-06-24T12:37:27;29.70;42.30
64654;DHT22;51065;48.884;12.598;2023-06-24T12:39:53;29.50;42.10
64654;DHT22;51065;48.884;12.598;2023-06-24T12:42:19;29.20;41.10
64654;DHT22;51065;48.884;12.598;2023-06-24T12:44:44;28.70;42.90
64654;DHT22;51065;48.884;12.598;2023-06-24T12:47:10;29.00;41.80
64654;DHT22;51065;48.884;12.598;2023-06-24T12:49:35;29.90;42.30
64654;DHT22;51065;48.884;12.598;2023-06-24T12:52:01;30.10;42.20
64654;DHT22;51065;48.884;12.598;2023-06-24T12:54:27;30.00;39.50
64654;DHT22;51065;48.884;12.598;2023-06-24T12:56:53;30.10;42.00
64654;DHT22;51065;48.884;12.598;2023-06-24T12:59:18;30.00;40.20
64654;DHT22;51065;48.884;12.598;2023-06-24T13:01:44;30.10;41.90
64654;DHT22;51065;48.884;12.598;2023-06-24T13:04:10;29.90;40.40
64654;DHT22;51065;48.884;12.598;2023-06-24T13:06:36;30.20;40.10
64654;DHT22;51065;48.884;12.598;2023-06-24T13:09:02;30.30;40.40
64654;DHT22;51065;48.884;12.598;2023-06-24T13:11:28;30.10;38.30
64654;DHT22;51065;48.884;12.598;2023-06-24T13:13:54;29.80;39.60
64654;DHT22;51065;48.884;12.598;2023-06-24T13:16:19;30.30;39.60
64654;DHT22;51065;48.884;12.598;2023-06-24T13:18:48;29.90;39.10
64654;DHT22;51065;48.884;12.598;2023-06-24T13:21:14;29.70;42.20
64654;DHT22;51065;48.884;12.598;2023-06-24T13:23:40;29.90;41.70
64654;DHT22;51065;48.884;12.598;2023-06-24T13:26:06;29.70;40.20
64654;DHT22;51065;48.884;12.598;2023-06-24T13:28:32;29.40;40.50
64654;DHT22;51065;48.884;12.598;2023-06-24T13:30:58;29.70;40.70
64654;DHT22;51065;48.884;12.598;2023-06-24T13:33:23;29.90;40.60
64654;DHT22;51065;48.884;12.598;2023-06-24T13:35:50;29.70;38.80
64654;DHT22;51065;48.884;12.598;2023-06-24T13:38:16;28.90;38.80
64654;DHT22;51065;48.884;12.598;2023-06-24T13:40:42;29.20;41.70
64654;DHT22;51065;48.884;12.598;2023-06-24T13:43:07;29.00;41.90
64654;DHT22;51065;48.884;12.598;2023-06-24T13:45:33;29.50;41.20
64654;DHT22;51065;48.884;12.598;2023-06-24T13:47:59;29.80;40.70
64654;DHT22;51065;48.884;12.598;2023-06-24T13:50:24;29.70;40.40
64654;DHT22;51065;48.884;12.598;2023-06-24T13:52:50;29.60;39.90
64654;DHT22;51065;48.884;12.598;2023-06-24T13:55:15;29.50;39.60
64654;DHT22;51065;48.884;12.598;2023-06-24T13:57:41;29.40;40.60
64654;DHT22;51065;48.884;12.598;2023-06-24T14:00:07;29.50;40.10
64654;DHT22;51065;48.884;12.598;2023-06-24T14:02:34;29.80;39.50
64654;DHT22;51065;48.884;12.598;2023-06-24T14:05:00;30.10;40.10
64654;DHT22;51065;48.884;12.598;2023-06-24T14:07:25;30.30;37.80
64654;DHT22;51065;48.884;12.598;2023-06-24T14:09:51;30.50;37.60
64654;DHT22;51065;48.884;12.598;2023-06-24T14:12:17;30.70;36.80
64654;DHT22;51065;48.884;12.598;2023-06-24T14:14:42;30.30;38.10
64654;DHT22;51065;48.884;12.598;2023-06-24T14:17:08;30.50;39.40
64654;DHT22;51065;48.884;12.598;2023-06-24T14:19:40;30.10;37.80
64654;DHT22;51065;48.884;12.598;2023-06-24T14:22:07;30.00;38.30
64654;DHT22;51065;48.884;12.598;2023-06-24T14:24:33;29.70;38.40
64654;DHT22;51065;48.884;12.598;2023-06-24T14:26:58;29.70;39.30
64654;DHT22;51065;48.884;12.598;2023-06-24T14:29:24;29.50;39.30
64654;DHT22;51065;48.884;12.598;2023-06-24T14:31:51;29.30;38.20
64654;DHT22;51065;48.884;12.598;2023-06-24T14:34:17;29.40;37.90
64654;DHT22;51065;48.884;12.598;2023-06-24T14:36:43;29.70;37.10
64654;DHT22;51065;48.884;12.598;2023-06-24T14:39:08;30.00;40.50
64654;DHT22;51065;48.884;12.598;2023-06-24T14:41:34;29.80;37.70
64654;DHT22;51065;48.884;12.598;2023-06-24T14:44:00;29.80;39.60
64654;DHT22;51065;48.884;12.598;2023-06-24T14:46:25;30.00;39.70
64654;DHT22;51065;48.884;12.598;2023-06-24T14:48:51;29.90;38.20
64654;DHT22;51065;48.884;12.598;2023-06-24T14:51:16;29.50;38.20
64654;DHT22;51065;48.884;12.598;2023-06-24T14:53:42;29.60;38.10
64654;DHT22;51065;48.884;12.598;2023-06-24T14:56:07;28.90;38.20
64654;DHT22;51065;48.884;12.598;2023-06-24T14:58:33;28.40;39.70
64654;DHT22;51065;48.884;12.598;2023-06-24T15:00:58;28.10;40.20
64654;DHT22;51065;48.884;12.598;2023-06-24T15:03:24;27.80;40.50
64654;DHT22;51065;48.884;12.598;2023-06-24T15:05:50;27.20;41.70
64654;DHT22;51065;48.884;12.598;2023-06-24T15:08:15;26.80;42.90
64654;DHT22;51065;48.884;12.598;2023-06-24T15:10:41;26.70;43.60
64654;DHT22;51065;48.884;12.598;2023-06-24T15:13:06;27.40;45.20
64654;DHT22;51065;48.884;12.598;2023-06-24T15:15:32;27.60;43.60
64654;DHT22;51065;48.884;12.598;2023-06-24T15:17:57;27.90;43.10
64654;DHT22;51065;48.884;12.598;2023-06-24T15:20:23;27.80;40.60
64654;DHT22;51065;48.884;12.598;2023-06-24T15:22:49;27.90;41.00
64654;DHT22;51065;48.884;12.598;2023-06-24T15:25:14;28.10;39.30
64654;DHT22;51065;48.884;12.598;2023-06-24T15:27:40;28.40;40.70